Time;durP1;ratioP1;P1;durP2;ratioP2;P2;SDS_P1;SDS_P2;PMS_P1;PMS_P2;Temp;Humidity;BMP_temperature;BMP_pressure;BME280_temperature;BME280_humidity;BME280_pressure;Samples;Min_cycle;Max_cycle;Signal;HPM_P1;HPM_P2
2023/03/25 13:50:45;;;;;;;16.45;2.38;;;15.90;75.50;;;;;;7387092;19;19999;-76
2023/03/25 13:53:27;;;;;;;15.43;2.30;;;16.10;75.30;;;;;;7379987;19;20002;-77
2023/03/25 13:56:18;;;;;;;18.58;2.67;;;16.00;75.50;;;;;;7382390;19;20011;-76
2023/03/25 13:59:18;;;;;;;12.30;2.37;;;16.10;75.70;;;;;;7379396;19;20010;-77
2023/03/25 14:02:17;;;;;;;14.85;2.35;;;16.30;74.40;;;;;;7381466;19;20676;-76
2023/03/25 14:05:25;;;;;;;10.32;1.63;;;16.40;73.90;;;;;;7381684;19;20034;-76
2023/03/25 14:08:22;;;;;;;19.80;2.65;;;16.30;72.40;;;;;;7379540;19;20010;-76
2023/03/25 14:10:55;;;;;;;15.02;2.65;;;16.10;72.20;;;;;;7382811;19;20072;-77
2023/03/25 14:13:33;;;;;;;13.60;2.40;;;16.10;73.70;;;;;;7401291;19;20007;-76
2023/03/25 14:16:07;;;;;;;14.25;2.80;;;16.50;74.10;;;;;;7377875;19;20393;-76
2023/03/25 14:18:43;;;;;;;11.93;2.13;;;16.70;72.30;;;;;;7377536;19;20003;-76
2023/03/25 14:21:28;;;;;;;16.63;2.00;;;16.80;70.70;;;;;;7377808;19;20009;-76
2023/03/25 14:24:07;;;;;;;12.48;2.10;;;16.80;71.40;;;;;;7380232;19;20007;-77
2023/03/25 14:26:37;;;;;;;14.02;2.58;;;16.90;70.50;;;;;;7380669;19;20774;-75
2023/03/25 14:29:18;;;;;;;14.55;2.47;;;17.00;70.90;;;;;;7379509;19;20010;-76
2023/03/25 14:32:02;;;;;;;13.73;2.28;;;17.10;70.60;;;;;;7375769;19;20066;-77
2023/03/25 14:34:31;;;;;;;11.50;1.90;;;17.10;70.10;;;;;;7402305;19;20015;-75
2023/03/25 14:37:27;;;;;;;20.80;2.55;;;16.90;70.00;;;;;;7376281;19;20003;-75
2023/03/25 14:40:06;;;;;;;12.50;2.53;;;16.80;70.20;;;;;;7376559;19;20007;-76
2023/03/25 14:42:58;;;;;;;14.68;1.95;;;16.70;71.50;;;;;;7377037;19;20010;-76
2023/03/25 14:45:43;;;;;;;18.15;2.58;;;16.80;71.40;;;;;;7376478;19;20267;-76
2023/03/25 14:48:29;;;;;;;19.80;2.88;;;16.40;69.90;;;;;;7378851;19;20009;-76
2023/03/25 14:51:21;;;;;;;11.80;1.88;;;16.30;70.40;;;;;;7377466;19;20006;-76
2023/03/25 14:53:55;;;;;;;22.48;2.53;;;16.40;70.90;;;;;;7378236;19;19999;-76
2023/03/25 14:56:34;;;;;;;16.02;2.28;;;16.40;69.70;;;;;;7378944;19;20003;-75
2023/03/25 14:59:09;;;;;;;12.18;2.67;;;16.50;70.00;;;;;;7378570;19;20229;-76
2023/03/25 15:01:40;;;;;;;16.00;2.22;;;16.50;70.70;;;;;;7399984;19;20258;-77
2023/03/25 15:04:16;;;;;;;11.35;2.20;;;16.60;70.50;;;;;;7380811;19;20024;-76
2023/03/25 15:06:47;;;;;;;18.08;2.40;;;16.60;71.30;;;;;;7381422;19;20078;-76
2023/03/25 15:09:19;;;;;;;16.65;2.60;;;16.60;71.60;;;;;;7382035;19;20006;-75
2023/03/25 15:11:57;;;;;;;14.05;2.33;;;16.70;72.30;;;;;;7380461;19;20007;-76
2023/03/25 15:14:30;;;;;;;18.40;2.28;;;16.90;71.40;;;;;;7381664;19;20070;-76
2023/03/25 15:17:11;;;;;;;30.17;2.97;;;16.90;70.30;;;;;;7383757;19;20015;-76
2023/03/25 15:20:10;;;;;;;12.75;2.05;;;17.00;70.50;;;;;;7407998;19;20011;-76
2023/03/25 15:22:40;;;;;;;11.68;2.10;;;16.90;69.10;;;;;;7277153;19;2004271;-76
2023/03/25 15:25:17;;;;;;;21.95;2.60;;;16.70;69.50;;;;;;7405251;19;20022;-76
2023/03/25 15:28:12;;;;;;;14.60;2.20;;;16.40;70.10;;;;;;7383199;19;20011;-77
2023/03/25 15:31:09;;;;;;;10.75;2.40;;;16.70;70.80;;;;;;7383841;19;20293;-76
2023/03/25 15:33:54;;;;;;;17.25;2.53;;;16.80;70.20;;;;;;7383949;19;20030;-76
2023/03/25 15:36:38;;;;;;;17.90;2.17;;;16.60;68.70;;;;;;7384455;19;20013;-76
2023/03/25 15:39:31;;;;;;;11.50;2.28;;;16.80;68.10;;;;;;7380443;19;20228;-76
2023/03/25 15:42:33;;;;;;;17.05;2.47;;;17.10;66.90;;;;;;7380236;19;20122;-75
2023/03/25 15:45:22;;;;;;;14.10;2.38;;;17.30;66.90;;;;;;7378451;19;20064;-75
2023/03/25 15:48:05;;;;;;;16.35;2.55;;;17.50;66.10;;;;;;7378119;19;20526;-76
2023/03/25 15:50:48;;;;;;;14.52;2.30;;;17.40;65.50;;;;;;7378773;19;20031;-76
2023/03/25 15:53:48;;;;;;;12.77;2.25;;;17.10;66.40;;;;;;7378619;19;20011;-76
2023/03/25 15:56:20;;;;;;;11.25;2.78;;;17.10;65.80;;;;;;7374883;19;20006;-76
2023/03/25 15:58:54;;;;;;;8.50;2.30;;;17.30;65.90;;;;;;7381594;19;20031;-76
2023/03/25 16:01:30;;;;;;;8.55;2.10;;;17.40;65.50;;;;;;7406743;19;20014;-76
2023/03/25 16:04:02;;;;;;;15.07;2.53;;;17.30;65.60;;;;;;7383793;19;20003;-76
2023/03/25 16:06:35;;;;;;;17.13;2.80;;;17.30;65.70;;;;;;7383454;19;20050;-76
2023/03/25 16:09:04;;;;;;;10.20;1.70;;;17.40;65.30;;;;;;7387020;19;20006;-76
2023/03/25 16:11:33;;;;;;;14.32;2.50;;;17.30;65.80;;;;;;7381759;19;20011;-76
2023/03/25 16:14:08;;;;;;;16.85;2.67;;;17.40;65.50;;;;;;7382658;19;20012;-77
2023/03/25 16:16:43;;;;;;;17.02;2.65;;;17.40;64.90;;;;;;7402036;19;20125;-77
2023/03/25 16:19:17;;;;;;;15.15;2.55;;;17.20;64.90;;;;;;7380256;19;20215;-76
2023/03/25 16:21:50;;;;;;;11.43;2.10;;;17.10;65.00;;;;;;7382604;19;20007;-76
2023/03/25 16:24:28;;;;;;;15.95;2.33;;;17.00;65.90;;;;;;7383925;19;20151;-76
2023/03/25 16:26:57;;;;;;;16.92;2.63;;;16.80;66.00;;;;;;7384908;19;20015;-75
2023/03/25 16:29:27;;;;;;;14.52;2.20;;;16.90;66.30;;;;;;7385358;19;20510;-77
2023/03/25 16:32:01;;;;;;;16.05;2.45;;;16.80;67.30;;;;;;7381672;19;20269;-76
2023/03/25 16:34:36;;;;;;;14.73;2.70;;;16.70;66.90;;;;;;7404940;19;20007;-76
2023/03/25 16:37:06;;;;;;;18.42;2.67;;;16.70;67.00;;;;;;7384524;19;20003;-77
2023/03/25 16:39:38;;;;;;;16.65;1.95;;;16.70;67.80;;;;;;7383816;19;20102;-76
2023/03/25 16:42:15;;;;;;;19.08;2.15;;;16.90;67.00;;;;;;7387081;19;20002;-75
2023/03/25 16:44:43;;;;;;;15.98;2.70;;;16.70;67.50;;;;;;7388238;19;20078;-75
2023/03/25 16:47:17;;;;;;;10.82;2.03;;;16.90;67.30;;;;;;7385511;19;20023;-75
2023/03/25 16:49:51;;;;;;;17.95;2.90;;;16.80;67.70;;;;;;7383523;19;20024;-75
2023/03/25 16:52:26;;;;;;;21.23;2.45;;;16.60;67.50;;;;;;7406508;19;20032;-77
2023/03/25 16:55:15;;;;;;;18.35;2.55;;;16.70;68.00;;;;;;7383064;19;20018;-76
2023/03/25 16:57:44;;;;;;;19.40;2.63;;;17.10;67.70;;;;;;7382748;19;20005;-76
2023/03/25 17:00:19;;;;;;;18.17;2.88;;;17.30;66.90;;;;;;7383492;19;20066;-77
2023/03/25 17:02:52;;;;;;;17.98;2.78;;;17.80;65.50;;;;;;7384834;19;20408;-75
2023/03/25 17:05:25;;;;;;;20.83;2.90;;;18.30;65.10;;;;;;7381412;19;20007;-76
2023/03/25 17:08:01;;;;;;;23.05;3.20;;;18.50;64.50;;;;;;7381437;19;20043;-76
2023/03/25 17:10:33;;;;;;;22.15;3.03;;;18.50;63.50;;;;;;7402247;19;20007;-76
2023/03/25 17:13:09;;;;;;;15.38;2.90;;;18.70;63.90;;;;;;7385560;19;20030;-76
2023/03/25 17:15:39;;;;;;;18.50;2.95;;;19.00;63.00;;;;;;7382445;19;20459;-76
2023/03/25 17:18:16;;;;;;;16.25;2.80;;;19.30;62.20;;;;;;7381342;19;20016;-76
2023/03/25 17:20:47;;;;;;;13.20;2.70;;;19.70;60.40;;;;;;7381324;19;20035;-76
2023/03/25 17:23:26;;;;;;;11.30;2.42;;;19.90;59.70;;;;;;7385575;19;20011;-76
2023/03/25 17:25:59;;;;;;;15.70;2.40;;;19.80;59.40;;;;;;7380510;19;20397;-76
2023/03/25 17:28:33;;;;;;;20.75;2.78;;;19.60;59.00;;;;;;7404536;19;20007;-76
2023/03/25 17:31:18;;;;;;;18.73;2.58;;;19.10;60.00;;;;;;7383006;19;20070;-77
2023/03/25 17:33:53;;;;;;;17.23;2.78;;;18.30;61.40;;;;;;7384589;19;20098;-76
2023/03/25 17:36:22;;;;;;;21.27;3.10;;;17.90;63.10;;;;;;7385516;19;20016;-77
2023/03/25 17:38:54;;;;;;;18.48;2.70;;;17.80;64.20;;;;;;7392076;19;20766;-76
2023/03/25 17:41:28;;;;;;;14.07;2.70;;;17.70;64.70;;;;;;7382147;19;20002;-76
2023/03/25 17:43:58;;;;;;;22.38;3.53;;;17.40;65.80;;;;;;7379914;19;20240;-76
2023/03/25 17:46:28;;;;;;;20.27;3.00;;;17.20;66.60;;;;;;7403444;19;20010;-77
2023/03/25 17:49:00;;;;;;;15.43;2.42;;;17.10;66.90;;;;;;7382482;19;20074;-77
2023/03/25 17:51:31;;;;;;;22.83;2.90;;;17.10;67.30;;;;;;7383284;19;20046;-76
2023/03/25 17:54:00;;;;;;;18.38;2.97;;;17.00;68.10;;;;;;7385472;19;20046;-75
2023/03/25 17:56:30;;;;;;;13.43;2.63;;;16.70;68.50;;;;;;7385342;19;20063;-75
2023/03/25 17:59:01;;;;;;;21.83;3.30;;;16.60;69.10;;;;;;7384627;19;20026;-76
2023/03/25 18:01:32;;;;;;;18.42;2.97;;;16.70;69.10;;;;;;7401179;19;20023;-76
2023/03/25 18:04:04;;;;;;;23.52;2.78;;;16.60;69.40;;;;;;7381569;19;20026;-77
2023/03/25 18:06:33;;;;;;;19.70;3.00;;;16.60;69.70;;;;;;7381137;19;20010;-77
2023/03/25 18:09:02;;;;;;;18.92;3.25;;;16.60;69.50;;;;;;7383839;19;20249;-77
2023/03/25 18:11:31;;;;;;;20.85;3.00;;;16.60;69.70;;;;;;7383718;19;20030;-77
2023/03/25 18:14:00;;;;;;;23.58;2.55;;;16.50;69.80;;;;;;7382608;19;20011;-76
2023/03/25 18:16:28;;;;;;;16.17;3.00;;;16.50;70.50;;;;;;7405886;19;20015;-77
2023/03/25 18:18:57;;;;;;;12.82;2.40;;;16.50;71.30;;;;;;7380876;19;20264;-77
2023/03/25 18:21:28;;;;;;;27.15;3.00;;;16.50;71.60;;;;;;7379171;19;20031;-77
2023/03/25 18:23:57;;;;;;;19.65;3.10;;;16.40;72.20;;;;;;7381444;19;20014;-77
2023/03/25 18:26:27;;;;;;;12.35;2.45;;;16.40;72.70;;;;;;7382683;19;20030;-77
2023/03/25 18:28:56;;;;;;;15.77;3.10;;;16.30;73.10;;;;;;7380670;19;20066;-76
2023/03/25 18:31:25;;;;;;;20.42;3.60;;;16.30;73.10;;;;;;7401169;19;20015;-76
2023/03/25 18:33:54;;;;;;;15.98;2.83;;;16.20;73.50;;;;;;7380839;19;20015;-76
2023/03/25 18:36:24;;;;;;;27.25;3.28;;;16.10;73.50;;;;;;7380154;19;20010;-77
2023/03/25 18:38:55;;;;;;;19.77;2.83;;;16.10;73.70;;;;;;7381746;19;20700;-76
2023/03/25 18:41:24;;;;;;;;;;;16.10;74.50;;;;;;7381773;19;20006;-77
2023/03/25 18:43:52;;;;;;;15.43;2.78;;;15.90;74.40;;;;;;7381502;19;19923;-77
2023/03/25 18:46:21;;;;;;;12.95;2.72;;;15.90;74.70;;;;;;7405621;19;20097;-76
2023/03/25 18:48:50;;;;;;;15.65;3.22;;;15.90;75.10;;;;;;7383096;19;20023;-76
2023/03/25 18:51:19;;;;;;;22.90;3.38;;;15.90;75.50;;;;;;7384924;19;20003;-77
2023/03/25 18:53:48;;;;;;;19.70;3.13;;;15.90;75.70;;;;;;7380450;19;20015;-77
2023/03/25 18:56:19;;;;;;;17.52;3.40;;;15.90;75.50;;;;;;7380568;19;20568;-76
2023/03/25 18:58:48;;;;;;;;;;;15.90;75.70;;;;;;7381922;19;20043;-76
2023/03/25 19:01:17;;;;;;;18.92;3.30;;;16.00;75.80;;;;;;7402401;19;20222;-77
2023/03/25 19:03:46;;;;;;;24.25;4.43;;;16.00;75.90;;;;;;7381748;19;20007;-76
2023/03/25 19:06:16;;;;;;;22.40;6.07;;;16.00;76.30;;;;;;7381310;19;20472;-77
2023/03/25 19:08:46;;;;;;;22.65;7.90;;;16.00;76.70;;;;;;7382166;19;20007;-76
2023/03/25 19:11:16;;;;;;;31.80;9.10;;;16.00;76.60;;;;;;7383541;19;20003;-76
2023/03/25 19:13:47;;;;;;;28.30;7.63;;;16.10;76.70;;;;;;7382541;19;20341;-77
2023/03/25 19:16:16;;;;;;;21.63;6.78;;;16.10;76.50;;;;;;7410723;19;20030;-77
2023/03/25 19:18:45;;;;;;;24.10;6.55;;;16.10;76.40;;;;;;7383337;19;20218;-76
2023/03/25 19:21:17;;;;;;;31.10;6.53;;;16.10;76.50;;;;;;7384406;19;20341;-76
2023/03/25 19:23:46;;;;;;;23.52;5.40;;;16.10;76.90;;;;;;7383064;19;20011;-76
2023/03/25 19:26:15;;;;;;;24.15;5.30;;;16.10;77.30;;;;;;7385152;19;20006;-78
2023/03/25 19:28:44;;;;;;;26.77;5.43;;;16.10;77.70;;;;;;7387762;19;20010;-76
2023/03/25 19:31:17;;;;;;;32.95;5.57;;;16.10;78.10;;;;;;7408372;19;20271;-76
2023/03/25 19:33:46;;;;;;;22.92;4.80;;;16.10;78.30;;;;;;7394785;19;20014;-76
2023/03/25 19:36:17;;;;;;;25.38;5.38;;;16.10;78.50;;;;;;7393816;19;20007;-76
2023/03/25 19:38:51;;;;;;;16.98;4.93;;;16.10;79.00;;;;;;7387952;19;20007;-76
2023/03/25 19:41:19;;;;;;;28.90;4.38;;;16.10;79.10;;;;;;7384455;19;20215;-76
2023/03/25 19:43:48;;;;;;;19.40;4.18;;;16.10;79.40;;;;;;7387178;19;20006;-76
2023/03/25 19:46:20;;;;;;;25.20;5.28;;;16.10;79.70;;;;;;7406681;19;20010;-76
2023/03/25 19:48:50;;;;;;;19.10;4.68;;;16.10;80.00;;;;;;7387721;19;20274;-76
2023/03/25 19:51:19;;;;;;;26.30;5.13;;;16.10;80.20;;;;;;7386087;19;20370;-76
2023/03/25 19:53:48;;;;;;;23.70;4.82;;;16.10;80.50;;;;;;7387693;19;20014;-76
2023/03/25 19:56:17;;;;;;;26.63;4.90;;;16.10;80.90;;;;;;7390761;19;20014;-76
2023/03/25 19:58:45;;;;;;;26.08;4.43;;;16.10;81.50;;;;;;7387876;19;20002;-76
2023/03/25 20:01:14;;;;;;;30.20;6.20;;;16.10;81.80;;;;;;7411062;19;20029;-76
2023/03/25 20:03:46;;;;;;;23.30;4.97;;;16.10;82.20;;;;;;7387684;19;20010;-76
2023/03/25 20:06:14;;;;;;;;;;;16.10;82.70;;;;;;7389008;19;20028;-76
2023/03/25 20:08:43;;;;;;;26.80;5.35;;;16.20;83.10;;;;;;7390972;19;19926;-76
2023/03/25 20:11:12;;;;;;;26.35;5.18;;;16.10;83.10;;;;;;7388186;19;20007;-76
2023/03/25 20:13:41;;;;;;;24.58;4.53;;;16.10;83.40;;;;;;7409668;19;20015;-76
2023/03/25 20:16:10;;;;;;;20.08;4.90;;;16.10;83.70;;;;;;7389453;19;20007;-76
2023/03/25 20:18:40;;;;;;;33.45;5.43;;;16.10;83.80;;;;;;7386661;19;20007;-76
2023/03/25 20:21:11;;;;;;;31.75;5.45;;;15.80;84.10;;;;;;7386884;19;20025;-76
2023/03/25 20:23:40;;;;;;;30.58;5.68;;;15.90;84.40;;;;;;7385058;19;20016;-76
2023/03/25 20:26:11;;;;;;;28.08;4.60;;;15.90;84.20;;;;;;7387572;19;19999;-76
2023/03/25 20:28:40;;;;;;;27.75;5.55;;;16.00;84.30;;;;;;7405367;19;20010;-76
2023/03/25 20:31:20;;;;;;;20.27;4.90;;;16.00;84.30;;;;;;7385394;19;19999;-76
2023/03/25 20:33:51;;;;;;;16.77;3.93;;;16.00;84.30;;;;;;7385022;19;20024;-76
2023/03/25 20:36:23;;;;;;;28.37;5.60;;;16.00;84.30;;;;;;7385368;19;20002;-76
2023/03/25 20:38:51;;;;;;;22.45;4.55;;;16.00;84.30;;;;;;7385878;19;20235;-76
2023/03/25 20:41:20;;;;;;;19.88;3.97;;;16.00;84.40;;;;;;7385679;19;20003;-77
2023/03/25 20:43:49;;;;;;;26.63;4.82;;;15.90;84.30;;;;;;7384937;19;20094;-76
2023/03/25 20:46:22;;;;;;;28.92;5.20;;;15.90;84.30;;;;;;7407136;19;20017;-77
2023/03/25 20:48:51;;;;;;;26.70;4.60;;;15.90;84.30;;;;;;7382613;19;20034;-77
2023/03/25 20:51:22;;;;;;;24.38;4.47;;;15.90;84.40;;;;;;7384481;19;20007;-77
2023/03/25 20:53:52;;;;;;;18.33;4.40;;;15.90;84.40;;;;;;7383953;19;20030;-77
2023/03/25 20:56:22;;;;;;;23.48;4.45;;;15.90;84.40;;;;;;7382593;19;20007;-77
2023/03/25 20:58:50;;;;;;;28.58;4.35;;;15.90;84.30;;;;;;7384914;19;20090;-77
2023/03/25 21:01:19;;;;;;;34.72;5.13;;;15.90;84.30;;;;;;7405920;19;20023;-77
2023/03/25 21:03:50;;;;;;;26.33;4.28;;;15.90;84.40;;;;;;7383512;19;20062;-77
2023/03/25 21:06:22;;;;;;;33.37;4.13;;;15.90;84.60;;;;;;7386640;19;20002;-77
2023/03/25 21:08:53;;;;;;;23.70;5.32;;;15.90;84.30;;;;;;7388738;19;20002;-77
2023/03/25 21:11:22;;;;;;;23.50;4.38;;;15.90;84.10;;;;;;7387275;19;19999;-77
2023/03/25 21:13:51;;;;;;;32.78;5.35;;;15.90;84.20;;;;;;7386838;19;20007;-77
2023/03/25 21:16:20;;;;;;;31.75;4.40;;;15.90;84.30;;;;;;7405411;19;20006;-76
2023/03/25 21:18:49;;;;;;;25.00;4.22;;;15.90;84.40;;;;;;7382525;19;20277;-76
2023/03/25 21:21:18;;;;;;;27.55;3.50;;;15.90;84.20;;;;;;7386302;19;20010;-77
2023/03/25 21:23:49;;;;;;;28.80;4.35;;;15.80;84.00;;;;;;7385278;19;20006;-76
2023/03/25 21:26:18;;;;;;;24.75;4.25;;;15.70;83.90;;;;;;7386259;19;20027;-76
2023/03/25 21:28:47;;;;;;;32.53;4.53;;;15.70;84.10;;;;;;7386597;19;20010;-76
2023/03/25 21:31:20;;;;;;;23.17;4.13;;;15.80;84.00;;;;;;7410534;19;20006;-76
2023/03/25 21:33:51;;;;;;;27.98;4.40;;;15.70;84.20;;;;;;7385002;19;20002;-77
2023/03/25 21:36:21;;;;;;;30.48;3.80;;;15.70;83.80;;;;;;7386292;19;20251;-76
2023/03/25 21:38:56;;;;;;;27.73;3.65;;;15.50;84.10;;;;;;7382427;19;20007;-77
2023/03/25 21:41:26;;;;;;;22.40;3.50;;;15.40;84.10;;;;;;7383948;19;20042;-77
2023/03/25 21:43:55;;;;;;;23.02;3.60;;;15.50;83.90;;;;;;7382497;19;20031;-77
2023/03/25 21:46:26;;;;;;;24.15;3.78;;;15.40;84.00;;;;;;7404883;19;20419;-76
2023/03/25 21:48:57;;;;;;;26.58;3.88;;;15.50;84.00;;;;;;7385227;19;20011;-77
2023/03/25 21:51:26;;;;;;;24.20;4.30;;;15.30;83.60;;;;;;7384376;19;20007;-77
2023/03/25 21:53:59;;;;;;;23.15;3.42;;;15.50;83.80;;;;;;7384959;19;20009;-77
2023/03/25 21:56:30;;;;;;;22.20;3.70;;;15.50;83.80;;;;;;7389392;19;20007;-77
2023/03/25 21:59:00;;;;;;;29.52;4.97;;;15.50;83.30;;;;;;7388120;19;20007;-77
2023/03/25 22:01:31;;;;;;;22.13;3.20;;;15.60;83.10;;;;;;7408925;19;20055;-77
2023/03/25 22:04:00;;;;;;;22.17;3.03;;;15.60;83.00;;;;;;7390382;19;20007;-77
2023/03/25 22:06:33;;;;;;;12.68;2.88;;;15.50;82.50;;;;;;7382976;19;20010;-78
2023/03/25 22:09:06;;;;;;;19.95;3.63;;;15.40;82.30;;;;;;7382496;19;20002;-76
2023/03/25 22:11:37;;;;;;;16.25;3.00;;;15.40;82.20;;;;;;7382034;19;20014;-75
2023/03/25 22:14:08;;;;;;;21.33;3.38;;;15.50;82.00;;;;;;7406865;19;20047;-76
2023/03/25 22:16:37;;;;;;;19.30;3.13;;;15.50;82.00;;;;;;7361975;19;20011;-77
2023/03/25 22:19:07;;;;;;;23.15;3.67;;;15.50;81.90;;;;;;7394349;19;20003;-75
2023/03/25 22:21:41;;;;;;;22.67;3.67;;;15.50;81.70;;;;;;7393954;19;20035;-81
2023/03/25 22:24:13;;;;;;;18.00;2.88;;;15.30;81.10;;;;;;7414101;19;20028;-79
2023/03/25 22:26:43;;;;;;;;;;;15.40;80.90;;;;;;7385654;19;20255;-77
2023/03/25 22:29:13;;;;;;;22.55;3.10;;;15.40;82.10;;;;;;7382077;19;19907;-77
2023/03/25 22:31:41;;;;;;;13.35;2.70;;;15.40;80.70;;;;;;7382851;19;20006;-77
2023/03/25 22:34:14;;;;;;;23.20;2.75;;;15.20;80.50;;;;;;7385463;19;20019;-77
2023/03/25 22:36:48;;;;;;;29.02;2.95;;;15.10;80.80;;;;;;7384239;19;20003;-76
2023/03/25 22:39:21;;;;;;;16.75;3.15;;;15.10;80.10;;;;;;7390514;19;20047;-77
2023/03/25 22:41:50;;;;;;;22.58;3.20;;;15.10;80.10;;;;;;7408374;19;20010;-78
2023/03/25 22:44:19;;;;;;;18.00;2.33;;;15.00;79.50;;;;;;7386204;19;20007;-77
2023/03/25 22:46:50;;;;;;;10.35;2.60;;;15.10;79.60;;;;;;7384994;19;20015;-77
2023/03/25 22:49:20;;;;;;;16.30;3.15;;;15.10;79.20;;;;;;7384003;19;20007;-77
2023/03/25 22:51:52;;;;;;;14.25;2.35;;;15.20;78.90;;;;;;7384466;19;20006;-78
2023/03/25 22:54:24;;;;;;;18.40;2.13;;;14.90;78.00;;;;;;7385677;19;20003;-77
2023/03/25 22:56:52;;;;;;;;;;;15.10;78.20;;;;;;7408549;19;20007;-77
2023/03/25 22:59:21;;;;;;;16.88;2.13;;;15.10;77.10;;;;;;7386631;19;20134;-78
2023/03/25 23:01:51;;;;;;;6.80;1.98;;;15.20;76.90;;;;;;7385229;19;20006;-77
2023/03/25 23:04:20;;;;;;;7.57;1.90;;;15.00;76.40;;;;;;7385438;19;20260;-78
2023/03/25 23:06:49;;;;;;;11.43;2.08;;;15.00;76.40;;;;;;7390886;19;20018;-76
2023/03/25 23:09:40;;;;;;;10.55;2.25;;;14.90;76.70;;;;;;7392469;19;20338;-76
2023/03/25 23:12:11;;;;;;;10.38;1.58;;;14.70;76.30;;;;;;7410854;19;20231;-77
2023/03/25 23:14:41;;;;;;;7.65;1.70;;;14.60;76.50;;;;;;7388463;19;20042;-76
2023/03/25 23:17:12;;;;;;;7.13;1.77;;;14.60;76.20;;;;;;7388508;19;20422;-77
2023/03/25 23:19:41;;;;;;;7.68;1.60;;;14.60;76.60;;;;;;7390517;19;20007;-79
2023/03/25 23:22:10;;;;;;;9.18;1.70;;;14.80;76.80;;;;;;7391047;19;20353;-77
2023/03/25 23:24:40;;;;;;;9.00;1.75;;;14.80;76.30;;;;;;7391003;19;20003;-78
2023/03/25 23:27:15;;;;;;;5.93;1.75;;;14.70;76.20;;;;;;7410442;19;20266;-77
2023/03/25 23:29:44;;;;;;;10.68;2.10;;;14.90;76.70;;;;;;7392298;19;20024;-76
2023/03/25 23:32:15;;;;;;;8.73;1.77;;;14.80;77.50;;;;;;7390913;19;20002;-77
2023/03/25 23:34:44;;;;;;;11.05;2.10;;;14.90;77.80;;;;;;7390356;19;20369;-77
2023/03/25 23:37:13;;;;;;;12.52;2.00;;;15.00;78.50;;;;;;7389576;19;20013;-77
2023/03/25 23:39:44;;;;;;;8.75;2.58;;;14.90;79.00;;;;;;7387352;19;20010;-76
2023/03/25 23:42:16;;;;;;;12.65;2.20;;;15.10;79.60;;;;;;7412596;19;20035;-77
2023/03/25 23:44:46;;;;;;;8.93;2.03;;;15.10;80.10;;;;;;7392373;19;20007;-76
2023/03/25 23:47:15;;;;;;;11.87;1.83;;;15.10;79.50;;;;;;7395054;19;20003;-78
2023/03/25 23:49:44;;;;;;;7.47;1.80;;;14.80;79.70;;;;;;7391445;19;20011;-78
2023/03/25 23:52:13;;;;;;;7.97;1.80;;;14.90;80.80;;;;;;7392690;19;20010;-76
2023/03/25 23:54:42;;;;;;;8.60;1.77;;;14.90;80.80;;;;;;7390121;19;20002;-77
2023/03/25 23:57:13;;;;;;;8.63;1.50;;;14.90;81.80;;;;;;7413360;19;20031;-77
2023/03/25 23:59:45;;;;;;;5.60;2.07;;;14.80;82.70;;;;;;7390005;19;20377;-77
